Midland, NC

5:20 AM EDT on September 29, 2016 (GMT -0400)
Bost Creek | | Change Station

Elev 528 ft 35.29 °N, 80.49 °W | Updated 28 minutes ago

Fog
Fog
63.2 °F
Feels Like 63.2 °F
N
0.0
Wind Variable Wind from North

Today
High -- | Low -- °F
--% Chance of Precip.
Yesterday
High -- | Low -- °F
Precip. -- in
Pressure 29.95 in
Visibility 0.5 miles
Clouds Overcast 200 ft
Dew Point 60 °F
Humidity 88%
Rainfall 0.00 in
Snow Depth Not available.
7:15 AM 7:08 PM
Waning Crescent, 2% visible
METAR KJQF 290905Z AUTO 00000KT 1/2SM FG OVC002 20/18 A2995 RMK AO2
Pressure 29.95 in
Visibility 0.5 miles
Clouds Overcast 200 ft
Dew Point 60 °F
Humidity 88%
Rainfall 0.00 in
Snow Depth Not available.
7:15 AM 7:08 PM
Waning Crescent, 2% visible
METAR KJQF 290905Z AUTO 00000KT 1/2SM FG OVC002 20/18 A2995 RMK AO2

10-Day Weather Forecast

Almanac

Astronomy

Sep. 29, 2016 Rise Set
Actual Time
Civil Twilight
Nautical Twilight
Astronomical Twilight
Moon
Length of Visible Light
Length of Day
Tomorrow will be .
, % of the Moon is Illuminated

Today's Extremes

State Highs State Lows

Community

WunderPhotos

Upload Photos

1,942,446 photos uploaded!

WunderBlog® & News

Nearby

Air Quality

  Air Quality AQ Index Pollutant
Not available.

Snow Depth

Station Depth Elevation

Earthquake Activity

City Distance Mag. Time & Date
Minimum magnitude displayed is 2.5.

Coastal Water Temperatures

Place Temperature

Stations

Nearby Weather Stations

Station Location Temp. Windchill Dew Point Humidity Wind Precip. Elev Updated Type
                   

Watches & Warnings

There are currently no watches in effect.